Time;durP1;ratioP1;P1;durP2;ratioP2;P2;SDS_P1;SDS_P2;PMS_P1;PMS_P2;Temp;Humidity;BMP_temperature;BMP_pressure;BME280_temperature;BME280_humidity;BME280_pressure;Samples;Min_cycle;Max_cycle;Signal;HPM_P1;HPM_P2
2022/08/17 00:00:33;;;;;;;30.70;26.92;;;;;;;21.82;62.48;100739.53;5094270;28;20016;-88
2022/08/17 00:03:13;;;;;;;30.92;27.33;;;;;;;21.76;62.94;100747.41;5097246;28;20046;-89
2022/08/17 00:05:49;;;;;;;30.40;27.08;;;;;;;21.71;62.58;100739.75;5102539;28;20098;-89
2022/08/17 00:08:19;;;;;;;30.38;27.02;;;;;;;21.66;63.63;100743.94;5109935;28;20040;-87
2022/08/17 00:10:45;;;;;;;32.45;29.08;;;;;;;21.60;63.96;100739.94;5095538;28;20043;-88
2022/08/17 00:13:39;;;;;;;30.52;27.60;;;;;;;21.63;63.27;100728.81;5092624;28;20099;-88
2022/08/17 00:16:07;;;;;;;;;;;;;;;21.70;60.96;100718.25;5110024;28;20054;-87
2022/08/17 00:18:34;;;;;;;32.10;28.77;;;;;;;21.58;64.12;100715.75;5103829;28;20089;-88
2022/08/17 00:21:01;;;;;;;33.47;28.20;;;;;;;21.60;64.29;100715.56;5104095;28;20035;-87
2022/08/17 00:23:27;;;;;;;33.05;29.60;;;;;;;21.54;64.55;100713.50;5093619;28;20031;-88
2022/08/17 00:25:53;;;;;;;33.60;30.13;;;;;;;21.46;64.96;100711.53;5092889;28;20024;-87
2022/08/17 00:28:19;;;;;;;33.75;30.25;;;;;;;21.45;65.19;100715.25;5103515;28;20063;-87
2022/08/17 00:30:47;;;;;;;33.83;30.40;;;;;;;21.31;65.52;100694.06;5119789;28;20068;-88
2022/08/17 00:33:17;;;;;;;33.28;29.92;;;;;;;21.35;65.47;100695.50;5106044;28;20027;-88
2022/08/17 00:35:44;;;;;;;33.38;29.88;;;;;;;21.36;65.64;100699.91;5107792;28;20031;-86
2022/08/17 00:38:11;;;;;;;32.22;28.88;;;;;;;21.48;65.17;100701.38;5108319;28;20164;-88
2022/08/17 00:40:49;;;;;;;33.97;30.58;;;;;;;21.52;64.74;100704.66;5097795;28;20073;-88
2022/08/17 00:43:20;;;;;;;33.35;29.85;;;;;;;21.46;65.18;100703.41;5095420;28;20032;-87
2022/08/17 00:45:46;;;;;;;33.90;30.45;;;;;;;21.39;65.92;100697.75;5109259;28;20023;-87
2022/08/17 00:48:12;;;;;;;33.70;30.30;;;;;;;21.38;65.77;100700.63;5112347;28;20492;-87
2022/08/17 00:50:42;;;;;;;34.40;30.80;;;;;;;21.35;66.09;100699.03;5103611;28;20021;-88
2022/08/17 00:53:07;;;;;;;31.92;28.52;;;;;;;21.36;66.35;100700.78;5095584;28;20024;-88
2022/08/17 00:55:34;;;;;;;32.67;29.17;;;;;;;21.35;66.23;100701.75;5093225;28;20293;-88
2022/08/17 00:58:03;;;;;;;33.58;30.08;;;;;;;21.37;66.10;100707.88;5104157;28;20119;-88
2022/08/17 01:00:35;;;;;;;34.25;30.55;;;;;;;21.26;66.77;100693.66;5097897;28;20102;-87
2022/08/17 01:03:05;;;;;;;33.60;30.23;;;;;;;21.27;66.91;100709.75;5101301;28;20117;-88
2022/08/17 01:05:33;;;;;;;34.85;31.15;;;;;;;21.23;67.25;100708.34;5107112;28;20488;-88
2022/08/17 01:08:00;;;;;;;35.08;31.40;;;;;;;21.25;67.11;100709.06;5103059;28;20036;-89
2022/08/17 01:10:34;;;;;;;34.15;30.77;;;;;;;21.19;67.17;100698.81;5099232;28;20024;-87
2022/08/17 01:13:01;;;;;;;34.40;30.48;;;;;;;21.20;67.33;100689.72;5112342;28;20035;-87
2022/08/17 01:15:29;;;;;;;33.90;30.30;;;;;;;21.09;68.02;100689.91;5101518;28;20043;-87
2022/08/17 01:17:55;;;;;;;33.85;30.48;;;;;;;21.10;67.88;100695.16;5100855;28;20027;-88
2022/08/17 01:20:20;;;;;;;34.72;31.25;;;;;;;21.08;68.16;100685.50;5103335;28;20077;-86
2022/08/17 01:22:45;;;;;;;34.05;30.63;;;;;;;20.98;68.10;100672.00;5094595;28;20378;-88
2022/08/17 01:25:11;;;;;;;38.13;32.13;;;;;;;21.00;68.55;100683.53;5103305;28;20051;-87
2022/08/17 01:27:37;;;;;;;35.35;31.85;;;;;;;20.99;68.59;100670.16;5110938;28;20027;-87
2022/08/17 01:30:07;;;;;;;34.65;31.13;;;;;;;21.03;68.16;100682.41;5103526;28;20483;-88
2022/08/17 01:32:33;;;;;;;36.17;31.30;;;;;;;21.09;68.19;100679.06;5112035;28;20020;-88
2022/08/17 01:34:59;;;;;;;36.75;31.50;;;;;;;21.06;68.15;100680.22;5109725;27;20321;-86
2022/08/17 01:37:35;;;;;;;34.05;30.42;;;;;;;21.10;68.00;100676.22;5100364;28;20032;-88
2022/08/17 01:40:12;;;;;;;33.85;30.45;;;;;;;21.04;68.02;100662.44;5096674;28;20042;-87
2022/08/17 01:42:50;;;;;;;34.60;31.00;;;;;;;21.07;67.61;100665.72;5099562;28;20032;-86
2022/08/17 01:45:29;;;;;;;34.03;30.52;;;;;;;21.02;67.85;100650.91;5105277;28;20029;-87
2022/08/17 01:47:55;;;;;;;35.70;31.55;;;;;;;21.06;68.51;100658.56;5103119;28;20031;-87
2022/08/17 01:50:29;;;;;;;34.20;30.63;;;;;;;21.12;67.90;100662.56;5108280;27;20036;-87
2022/08/17 01:53:09;;;;;;;33.67;30.38;;;;;;;21.10;68.07;100651.00;5103290;28;20145;-87
2022/08/17 01:55:44;;;;;;;34.53;31.02;;;;;;;21.06;68.18;100655.88;5099573;28;20035;-87
2022/08/17 01:58:10;;;;;;;32.15;28.85;;;;;;;21.06;68.72;100652.31;5100747;28;20012;-88
2022/08/17 02:00:39;;;;;;;35.50;30.38;;;;;;;21.00;68.62;100655.63;5114176;28;20028;-87
2022/08/17 02:03:06;;;;;;;34.58;30.92;;;;;;;20.91;69.07;100657.38;5098955;28;20043;-88
2022/08/17 02:05:32;;;;;;;34.17;30.58;;;;;;;20.83;69.14;100647.31;5097655;28;20100;-89
2022/08/17 02:07:58;;;;;;;34.38;30.35;;;;;;;20.84;69.36;100650.84;5096607;28;20481;-88
2022/08/17 02:10:25;;;;;;;36.13;32.22;;;;;;;20.79;69.89;100654.00;5099036;28;20024;-89
2022/08/17 02:12:50;;;;;;;34.38;30.85;;;;;;;20.71;69.92;100655.75;5099446;28;20027;-88
2022/08/17 02:15:15;;;;;;;36.13;32.25;;;;;;;20.58;70.64;100645.28;5103293;28;20047;-88
2022/08/17 02:17:41;;;;;;;32.97;29.42;;;;;;;20.59;70.60;100641.56;5102961;28;20039;-88
2022/08/17 02:20:08;;;;;;;35.45;31.85;;;;;;;20.61;70.37;100644.97;5099977;28;20032;-88
2022/08/17 02:22:35;;;;;;;34.35;30.77;;;;;;;20.57;70.83;100641.72;5098667;28;20031;-88
2022/08/17 02:25:03;;;;;;;34.13;30.50;;;;;;;20.55;70.56;100640.16;5106962;28;20051;-88
2022/08/17 02:27:29;;;;;;;33.88;30.42;;;;;;;20.60;70.58;100649.50;5105263;28;20031;-89
2022/08/17 02:29:54;;;;;;;33.90;30.40;;;;;;;20.53;70.99;100651.13;5104653;28;20027;-88
2022/08/17 02:32:23;;;;;;;34.75;31.15;;;;;;;20.51;71.02;100649.56;5103463;28;20114;-87
2022/08/17 02:34:49;;;;;;;35.22;31.60;;;;;;;20.48;71.18;100642.56;5111201;28;20034;-87
2022/08/17 02:37:18;;;;;;;33.90;30.25;;;;;;;20.52;71.05;100640.44;5100432;28;20032;-87
2022/08/17 02:39:44;;;;;;;33.47;29.67;;;;;;;20.43;71.15;100627.78;5108284;28;20035;-88
2022/08/17 02:42:11;;;;;;;31.75;28.55;;;;;;;20.51;70.81;100641.44;5105183;27;20020;-88
2022/08/17 02:44:37;;;;;;;33.47;30.05;;;;;;;20.47;71.58;100635.44;5127969;28;20023;-88
2022/08/17 02:47:03;;;;;;;31.98;28.67;;;;;;;20.45;70.88;100628.50;5126018;28;20031;-87
2022/08/17 02:49:28;;;;;;;32.33;29.05;;;;;;;20.43;71.13;100628.63;5126270;28;20028;-88
2022/08/17 02:51:56;;;;;;;31.50;28.10;;;;;;;20.41;71.18;100625.22;5132433;28;20014;-88
2022/08/17 02:54:21;;;;;;;34.47;30.95;;;;;;;20.37;71.41;100621.13;5134350;28;20040;-88
2022/08/17 02:56:47;;;;;;;32.85;29.42;;;;;;;20.38;71.45;100634.47;5130362;28;20039;-86
2022/08/17 02:59:12;;;;;;;32.65;29.27;;;;;;;20.38;71.33;100626.34;5129026;28;20016;-88
2022/08/17 03:01:38;;;;;;;33.13;29.75;;;;;;;20.31;71.64;100617.13;5130903;28;20568;-87
2022/08/17 03:04:03;;;;;;;33.88;30.48;;;;;;;20.34;71.69;100627.66;5110789;28;20031;-89
2022/08/17 03:06:30;;;;;;;33.55;30.13;;;;;;;20.28;71.91;100609.34;5112788;28;20012;-86
2022/08/17 03:08:55;;;;;;;34.28;30.70;;;;;;;20.31;71.97;100619.81;5111954;28;20027;-88
2022/08/17 03:11:21;;;;;;;34.65;31.00;;;;;;;20.20;72.15;100609.22;5111585;28;20030;-88
2022/08/17 03:13:46;;;;;;;35.53;31.90;;;;;;;20.19;72.14;100615.63;5107997;28;20102;-88
2022/08/17 03:16:11;;;;;;;34.45;30.52;;;;;;;20.20;72.26;100613.75;5102025;28;20458;-89
2022/08/17 03:18:37;;;;;;;34.65;31.05;;;;;;;20.17;72.58;100612.19;5101045;28;20134;-87
2022/08/17 03:21:03;;;;;;;34.92;30.63;;;;;;;20.19;72.04;100607.50;5110770;28;20032;-87
2022/08/17 03:23:29;;;;;;;32.67;29.55;;;;;;;20.16;72.34;100610.50;5102404;28;20376;-88
2022/08/17 03:25:55;;;;;;;31.38;28.10;;;;;;;20.11;72.67;100610.94;5110185;28;20102;-87
2022/08/17 03:28:21;;;;;;;30.65;27.38;;;;;;;20.07;72.38;100625.72;5098227;28;20118;-87
2022/08/17 03:30:47;;;;;;;29.75;26.77;;;;;;;19.94;72.94;100610.78;5098021;28;20476;-88
2022/08/17 03:33:13;;;;;;;31.25;28.10;;;;;;;19.85;73.11;100616.06;5107378;28;20039;-89
2022/08/17 03:35:39;;;;;;;32.28;28.35;;;;;;;19.86;73.30;100625.06;5094037;28;20068;-89
2022/08/17 03:38:07;;;;;;;31.33;28.02;;;;;;;19.89;73.30;100622.03;5100405;28;20032;-89
2022/08/17 03:40:32;;;;;;;33.08;29.58;;;;;;;19.86;73.86;100609.69;5104325;28;20023;-89
2022/08/17 03:43:03;;;;;;;34.47;30.77;;;;;;;19.86;73.64;100625.91;5094412;28;20038;-88
2022/08/17 03:56:43;;;;;;;36.03;31.90;;;;;;;19.65;75.21;100636.00;5104352;28;20103;-88
2022/08/17 03:59:19;;;;;;;37.05;32.83;;;;;;;19.68;74.67;100635.69;5100694;28;20122;-89
2022/08/17 04:01:49;;;;;;;36.75;32.97;;;;;;;19.68;75.46;100646.50;5103672;28;20027;-88
2022/08/17 04:04:15;;;;;;;36.83;32.92;;;;;;;19.69;74.98;100645.53;5097836;28;20412;-88
2022/08/17 04:06:41;;;;;;;38.10;34.10;;;;;;;19.64;75.63;100642.38;5096031;28;20035;-87
2022/08/17 04:09:07;;;;;;;38.67;34.25;;;;;;;19.60;75.72;100644.47;5103702;28;20589;-87
2022/08/17 04:11:35;;;;;;;39.20;35.13;;;;;;;19.61;75.86;100648.06;5108231;28;20396;-88
2022/08/17 04:14:01;;;;;;;40.83;35.67;;;;;;;19.63;75.58;100646.06;5098777;28;20043;-88
2022/08/17 04:16:27;;;;;;;38.83;34.67;;;;;;;19.69;75.42;100650.03;5098397;28;20094;-88
2022/08/17 04:18:52;;;;;;;38.58;34.80;;;;;;;19.64;75.95;100642.38;5097496;28;20026;-87
2022/08/17 04:21:19;;;;;;;38.05;33.95;;;;;;;19.54;75.84;100642.34;5108651;28;20460;-90
2022/08/17 04:23:45;;;;;;;39.00;34.80;;;;;;;19.57;76.03;100649.31;5101585;28;20089;-89
2022/08/17 04:26:11;;;;;;;40.63;36.22;;;;;;;19.45;77.15;100650.44;5098312;28;20051;-88
2022/08/17 04:28:37;;;;;;;41.58;37.28;;;;;;;19.51;77.14;100650.72;5098895;28;20036;-88
2022/08/17 04:31:03;;;;;;;41.88;37.40;;;;;;;19.47;76.94;100665.47;5102570;28;20037;-87
2022/08/17 04:33:29;;;;;;;39.50;34.28;;;;;;;19.50;77.35;100705.69;5108335;28;20043;-87
2022/08/17 04:35:58;;;;;;;41.75;37.42;;;;;;;19.48;77.52;100761.69;5098977;28;20058;-87
2022/08/17 04:38:27;;;;;;;44.33;39.38;;;;;;;19.44;77.65;100741.34;5106372;28;20055;-87
2022/08/17 04:43:38;;;;;;;45.25;40.35;;;;;;;19.68;77.24;100714.00;5093306;28;20081;-88
2022/08/17 04:46:07;;;;;;;45.95;40.80;;;;;;;19.67;77.24;100727.66;5098609;28;20020;-87
2022/08/17 04:48:39;;;;;;;45.17;40.42;;;;;;;19.78;77.00;100743.72;5104483;28;20112;-88
2022/08/17 04:51:15;;;;;;;44.67;39.58;;;;;;;19.74;76.89;100726.94;5105265;28;20142;-88
2022/08/17 04:53:44;;;;;;;49.10;41.42;;;;;;;19.78;77.51;100730.22;5099362;28;20465;-89
2022/08/17 04:56:14;;;;;;;46.33;38.72;;;;;;;19.81;77.24;100716.41;5094556;28;20035;-88
2022/08/17 04:58:40;;;;;;;46.28;38.85;;;;;;;19.83;77.23;100717.16;5091772;28;20077;-89
2022/08/17 05:01:06;;;;;;;45.03;40.20;;;;;;;19.86;76.95;100708.78;5095697;28;20032;-88
2022/08/17 05:03:31;;;;;;;45.90;41.05;;;;;;;19.83;77.56;100715.31;5100988;28;20034;-88
2022/08/17 05:05:56;;;;;;;47.60;40.17;;;;;;;19.75;77.46;100690.84;5098641;28;20472;-88
2022/08/17 05:08:22;;;;;;;46.80;41.70;;;;;;;19.77;77.93;100707.78;5091497;28;20032;-88
2022/08/17 05:10:48;;;;;;;48.35;41.58;;;;;;;19.75;78.19;100709.75;5102602;28;20086;-88
2022/08/17 05:13:16;;;;;;;44.78;40.10;;;;;;;19.72;78.41;100704.63;5104163;28;20027;-88
2022/08/17 05:15:43;;;;;;;47.40;42.30;;;;;;;19.64;78.75;100710.72;5107027;28;20059;-88
2022/08/17 05:18:09;;;;;;;47.70;41.83;;;;;;;19.66;78.84;100718.69;5103985;28;20032;-88
2022/08/17 05:20:36;;;;;;;47.72;42.67;;;;;;;19.67;79.28;100714.16;5100118;28;20151;-88
2022/08/17 05:23:06;;;;;;;46.50;41.65;;;;;;;19.68;79.57;100713.16;5101718;28;20051;-89
2022/08/17 05:25:35;;;;;;;49.58;41.63;;;;;;;19.71;79.14;100700.22;5112340;27;20110;-90
2022/08/17 05:28:01;;;;;;;47.63;42.10;;;;;;;19.75;79.26;100707.03;5101452;28;20079;-89
2022/08/17 05:30:26;;;;;;;48.28;42.63;;;;;;;19.80;79.53;100710.16;5105723;28;20035;-87
2022/08/17 05:32:57;;;;;;;48.97;41.88;;;;;;;19.80;79.36;100709.31;5111109;28;20035;-88
2022/08/17 05:35:24;;;;;;;46.90;41.80;;;;;;;19.75;79.80;100706.19;5107096;28;20038;-89
2022/08/17 05:37:50;;;;;;;47.53;42.28;;;;;;;19.76;79.45;100695.25;5098925;28;20032;-88
2022/08/17 05:40:16;;;;;;;45.55;40.70;;;;;;;19.91;79.43;100714.59;5101981;28;20061;-88
2022/08/17 05:42:41;;;;;;;47.47;42.47;;;;;;;19.87;79.37;100716.72;5108936;28;20035;-88
2022/08/17 05:45:08;;;;;;;46.55;41.17;;;;;;;19.89;79.54;100703.91;5110692;28;20020;-89
2022/08/17 05:47:38;;;;;;;47.63;42.55;;;;;;;19.98;79.33;100712.16;5104436;28;20138;-89
2022/08/17 05:50:07;;;;;;;48.92;43.55;;;;;;;19.97;79.17;100703.22;5108523;28;20101;-89
2022/08/17 05:52:34;;;;;;;46.97;40.92;;;;;;;20.10;78.72;100713.72;5113767;28;20023;-88
2022/08/17 05:55:06;;;;;;;46.08;40.78;;;;;;;20.28;78.21;100714.72;5107608;28;20066;-89
2022/08/17 05:57:40;;;;;;;46.80;41.47;;;;;;;20.48;78.21;100714.69;5101507;28;20023;-89
2022/08/17 06:00:16;;;;;;;45.42;40.60;;;;;;;20.72;76.91;100711.53;5108269;28;20020;-89
2022/08/17 06:02:57;;;;;;;46.00;39.65;;;;;;;20.98;76.12;100709.03;5111797;28;20027;-91
2022/08/17 06:05:35;;;;;;;44.92;40.10;;;;;;;21.22;75.13;100711.22;5105613;28;20043;-88
2022/08/17 06:08:20;;;;;;;44.60;39.75;;;;;;;21.45;73.88;100726.09;5101320;28;21036;-89
2022/08/17 06:10:52;;;;;;;42.38;37.80;;;;;;;21.52;74.26;100720.91;5105942;28;20036;-89
2022/08/17 06:13:38;;;;;;;43.25;36.20;;;;;;;21.68;72.75;100726.50;5095711;28;20077;-89
2022/08/17 06:16:08;;;;;;;40.55;36.17;;;;;;;21.73;72.07;100723.34;5105787;28;20048;-89
2022/08/17 06:18:51;;;;;;;39.83;35.55;;;;;;;21.87;72.34;100736.38;5096999;28;20015;-88
2022/08/17 06:21:18;;;;;;;;;;;;;;;21.93;71.97;100733.03;5113076;28;20036;-89
2022/08/17 06:23:52;;;;;;;42.92;36.47;;;;;;;21.68;72.44;100737.34;5096970;28;19915;-88
2022/08/17 06:26:30;;;;;;;40.60;36.30;;;;;;;21.63;72.33;100731.53;5099487;28;20114;-89
2022/08/17 06:29:01;;;;;;;40.33;35.50;;;;;;;21.67;72.57;100738.34;5111580;28;20300;-88
2022/08/17 06:31:35;;;;;;;38.47;34.03;;;;;;;21.70;72.38;100737.19;5104716;28;20332;-89
2022/08/17 06:34:03;;;;;;;39.92;34.95;;;;;;;21.68;72.47;100731.91;5107767;28;20032;-89
2022/08/17 06:36:48;;;;;;;40.50;36.40;;;;;;;21.76;71.87;100737.44;5100226;28;20054;-90
2022/08/17 06:39:46;;;;;;;38.65;34.63;;;;;;;21.63;71.65;100718.00;5111397;28;20023;-91
2022/08/17 06:42:43;;;;;;;39.60;34.78;;;;;;;21.64;71.84;100731.38;5097108;28;20408;-90
2022/08/17 06:45:13;;;;;;;38.75;34.55;;;;;;;21.69;72.40;100741.75;5106492;28;20030;-90
2022/08/17 06:47:51;;;;;;;38.83;34.72;;;;;;;21.74;72.11;100753.00;5108246;28;20032;-90
2022/08/17 06:50:20;;;;;;;37.53;33.72;;;;;;;21.71;72.17;100760.56;5109427;27;20028;-90
2022/08/17 06:52:51;;;;;;;39.17;34.22;;;;;;;21.66;72.47;100774.56;5095992;28;20032;-91
2022/08/17 06:55:25;;;;;;;39.95;35.70;;;;;;;21.62;72.63;100767.75;5105852;28;20028;-90
2022/08/17 06:58:00;;;;;;;40.65;36.25;;;;;;;21.70;72.96;100775.97;5103362;28;20023;-91
2022/08/17 07:00:35;;;;;;;38.17;34.10;;;;;;;21.77;72.25;100762.66;5099692;28;20045;-92
2022/08/17 07:03:06;;;;;;;41.22;36.78;;;;;;;21.80;72.10;100768.63;5097243;28;20020;-91
2022/08/17 07:05:47;;;;;;;40.33;36.08;;;;;;;21.80;71.90;100773.19;5097783;28;20088;-91
2022/08/17 07:08:21;;;;;;;41.00;36.67;;;;;;;21.84;72.04;100775.44;5105576;28;20102;-91
2022/08/17 07:10:52;;;;;;;39.17;35.08;;;;;;;21.91;71.86;100772.13;5104400;28;20076;-92
2022/08/17 07:13:40;;;;;;;40.80;35.47;;;;;;;21.93;71.62;100773.66;5101045;28;20466;-91
2022/08/17 07:16:24;;;;;;;41.15;36.50;;;;;;;21.89;71.53;100770.41;5105686;28;20024;-91
2022/08/17 07:18:52;;;;;;;42.13;35.30;;;;;;;21.90;71.41;100765.84;5118818;28;20030;-90
2022/08/17 07:21:56;;;;;;;39.90;35.42;;;;;;;21.99;71.47;100766.81;5127101;28;20377;-92
2022/08/17 07:24:46;;;;;;;40.70;33.75;;;;;;;22.12;71.34;100778.13;5115336;27;20016;-91
2022/08/17 07:27:16;;;;;;;37.83;33.35;;;;;;;22.13;71.50;100771.72;5122634;28;20027;-90
2022/08/17 07:29:52;;;;;;;36.50;32.67;;;;;;;22.21;70.54;100771.78;5125841;28;20050;-90
2022/08/17 07:32:22;;;;;;;38.05;33.42;;;;;;;22.21;70.55;100770.94;5120032;28;20020;-87
2022/08/17 07:35:09;;;;;;;33.58;30.05;;;;;;;22.45;69.95;100773.88;5119325;28;20087;-91
2022/08/17 07:37:37;;;;;;;35.67;31.63;;;;;;;22.58;69.43;100785.16;5098041;28;20027;-89
2022/08/17 07:40:22;;;;;;;33.08;29.67;;;;;;;22.70;69.08;100790.31;5103324;28;20510;-89
2022/08/17 07:43:03;;;;;;;34.80;30.00;;;;;;;22.82;68.35;100794.47;5103743;28;20115;-89
2022/08/17 07:48:25;;;;;;;32.67;29.38;;;;;;;22.95;67.73;100788.66;5094892;28;20066;-91
2022/08/17 07:50:52;;;;;;;33.22;29.85;;;;;;;22.88;67.84;100797.44;5102069;28;20031;-90
2022/08/17 07:53:22;;;;;;;32.65;28.95;;;;;;;22.82;67.79;100794.47;5098100;28;20539;-90
2022/08/17 07:55:49;;;;;;;33.30;29.75;;;;;;;22.63;67.81;100799.09;5095343;28;20040;-89
2022/08/17 07:58:17;;;;;;;32.50;28.95;;;;;;;22.62;67.70;100797.41;5094965;28;20019;-93
2022/08/17 08:00:42;;;;;;;32.60;28.08;;;;;;;22.66;68.03;100797.94;5103996;28;20075;-88
2022/08/17 08:03:21;;;;;;;31.48;28.27;;;;;;;22.68;67.48;100790.50;5108503;28;20055;-88
2022/08/17 08:05:56;;;;;;;29.50;26.60;;;;;;;22.85;67.80;100807.75;5098559;28;20023;-86
2022/08/17 08:08:33;;;;;;;30.15;26.73;;;;;;;22.88;67.31;100792.00;5106564;28;20046;-87
2022/08/17 08:11:04;;;;;;;28.88;25.83;;;;;;;22.99;66.38;100788.22;5103007;28;20160;-88
2022/08/17 08:13:31;;;;;;;30.42;27.13;;;;;;;22.98;66.45;100797.34;5092571;28;20039;-87
2022/08/17 08:16:23;;;;;;;28.90;25.77;;;;;;;22.97;66.69;100789.38;5092520;28;20344;-87
2022/08/17 08:18:52;;;;;;;29.17;26.00;;;;;;;22.89;66.95;100776.56;5099422;28;20078;-88
2022/08/17 08:21:40;;;;;;;33.08;29.33;;;;;;;22.85;66.99;100783.31;5109592;28;20388;-88
2022/08/17 08:24:11;;;;;;;32.03;25.77;;;;;;;22.71;67.27;100789.34;5095007;28;20036;-88
2022/08/17 08:26:47;;;;;;;26.73;24.08;;;;;;;22.72;68.13;100797.31;5105630;28;20039;-88
2022/08/17 08:29:31;;;;;;;27.27;24.42;;;;;;;22.99;67.65;100806.34;5103814;28;20034;-88
2022/08/17 08:32:35;;;;;;;27.80;24.80;;;;;;;23.23;66.30;100814.63;5100921;28;20507;-87
2022/08/17 08:35:22;;;;;;;28.58;25.67;;;;;;;23.26;65.76;100819.75;5100820;28;20036;-88
2022/08/17 08:38:06;;;;;;;28.35;24.90;;;;;;;23.36;65.84;100819.63;5109077;28;20035;-87
2022/08/17 08:40:49;;;;;;;27.05;24.45;;;;;;;23.64;64.70;100819.44;5103625;28;20127;-87
2022/08/17 08:43:42;;;;;;;28.92;25.35;;;;;;;23.75;63.89;100825.47;5103268;28;20028;-88
2022/08/17 08:46:40;;;;;;;27.67;24.80;;;;;;;24.00;63.29;100823.69;5102660;28;20442;-87
2022/08/17 08:49:30;;;;;;;28.73;25.83;;;;;;;24.14;62.56;100819.44;5098742;28;20195;-87
2022/08/17 08:52:01;;;;;;;27.65;24.98;;;;;;;24.15;62.70;100804.81;5100134;28;20116;-88
2022/08/17 08:54:39;;;;;;;27.33;24.38;;;;;;;24.16;62.30;100792.97;5094312;28;20031;-87
2022/08/17 08:57:23;;;;;;;26.38;23.98;;;;;;;24.32;62.49;100803.84;5095419;28;20034;-86
2022/08/17 09:00:14;;;;;;;25.92;23.33;;;;;;;24.21;61.89;100793.31;5096084;28;20509;-87
2022/08/17 09:03:04;;;;;;;28.88;25.98;;;;;;;24.08;62.41;100809.25;5110697;28;20083;-87
2022/08/17 09:05:52;;;;;;;29.25;25.95;;;;;;;23.98;62.67;100822.13;5106573;28;20771;-86
2022/08/17 09:08:45;;;;;;;26.83;24.02;;;;;;;23.82;63.27;100834.63;5104273;28;20027;-87
2022/08/17 09:11:21;;;;;;;27.85;24.83;;;;;;;23.60;63.33;100832.50;5104937;28;20023;-93
2022/08/17 09:14:09;;;;;;;26.52;23.70;;;;;;;23.57;63.79;100820.06;5106850;28;20028;-88
2022/08/17 09:17:05;;;;;;;27.30;24.42;;;;;;;23.58;63.64;100812.78;5103446;28;20042;-88
2022/08/17 09:19:42;;;;;;;25.70;22.92;;;;;;;23.56;63.49;100828.38;5108489;28;20055;-88
2022/08/17 09:22:19;;;;;;;26.05;23.35;;;;;;;23.64;64.17;100844.72;5097150;28;20016;-88
2022/08/17 09:24:59;;;;;;;26.45;23.73;;;;;;;23.68;64.17;100854.28;5103761;28;20035;-87
2022/08/17 09:27:58;;;;;;;26.35;23.58;;;;;;;23.77;63.11;100869.63;5107021;28;20026;-87
2022/08/17 09:30:25;;;;;;;25.92;23.13;;;;;;;23.72;63.17;100880.13;5110563;28;20492;-87
2022/08/17 09:32:58;;;;;;;25.85;23.15;;;;;;;23.73;63.06;100902.72;5094862;28;20020;-87
2022/08/17 09:35:29;;;;;;;;;;;;;;;23.73;62.92;100906.28;5100904;28;20042;-88
2022/08/17 09:38:16;;;;;;;27.13;24.23;;;;;;;23.27;64.83;100910.22;5100351;28;20132;-87
2022/08/17 09:40:53;;;;;;;27.80;24.50;;;;;;;22.85;66.43;100919.84;5108171;28;20043;-88
2022/08/17 09:43:35;;;;;;;29.15;26.05;;;;;;;22.37;69.88;100912.94;5113249;28;20452;-87
2022/08/17 09:46:08;;;;;;;29.23;26.25;;;;;;;21.90;74.04;100904.03;5095240;28;20481;-87
2022/08/17 09:48:56;;;;;;;32.53;29.00;;;;;;;21.62;73.98;100908.59;5105122;28;20024;-87
2022/08/17 09:51:35;;;;;;;32.90;28.10;;;;;;;21.20;77.24;100884.59;5107173;28;20034;-87
2022/08/17 09:54:02;;;;;;;34.08;30.45;;;;;;;20.85;80.15;100887.91;5112787;28;20031;-88
2022/08/17 09:56:43;;;;;;;36.17;30.48;;;;;;;20.62;82.59;100893.59;5102079;28;20110;-86
2022/08/17 09:59:27;;;;;;;34.75;30.75;;;;;;;20.43;85.70;100892.69;5104121;28;20504;-87
2022/08/17 10:02:36;;;;;;;40.88;32.95;;;;;;;20.20;86.67;100909.19;5096458;28;20115;-87
2022/08/17 10:05:16;;;;;;;40.35;34.08;;;;;;;20.06;90.95;100915.81;5100749;28;20028;-86
2022/08/17 10:08:18;;;;;;;36.83;32.90;;;;;;;19.93;89.54;100920.59;5106660;27;20039;-85
2022/08/17 10:11:21;;;;;;;45.25;37.35;;;;;;;19.98;94.41;100931.00;5103532;28;20028;-86
2022/08/17 10:13:50;;;;;;;40.05;35.67;;;;;;;20.08;95.82;100921.94;5096738;28;20028;-86
2022/08/17 10:16:37;;;;;;;42.35;37.53;;;;;;;20.12;97.11;100917.13;5107169;28;20050;-87
2022/08/17 10:19:14;;;;;;;43.38;37.60;;;;;;;20.12;96.00;100900.91;5094199;28;20059;-87
2022/08/17 10:27:32;;;;;;;43.75;37.90;;;;;;;19.85;96.17;100842.09;5109375;28;20530;-87
2022/08/17 10:30:03;;;;;;;42.20;37.65;;;;;;;19.95;97.82;100858.34;5100675;28;20084;-88
2022/08/17 10:32:42;;;;;;;45.67;39.75;;;;;;;19.74;98.91;100840.38;5101474;28;20033;-90
2022/08/17 10:35:24;;;;;;;45.22;39.53;;;;;;;20.00;99.29;100856.94;5099400;28;20066;-88
2022/08/17 10:38:21;;;;;;;43.30;38.28;;;;;;;19.98;98.92;100874.25;5105634;28;20062;-89
2022/08/17 10:40:54;;;;;;;46.45;39.33;;;;;;;19.93;99.78;100858.47;5103498;28;20504;-87
2022/08/17 10:43:31;;;;;;;;;;;;;;;20.12;94.68;100879.28;5104286;28;20456;-87
2022/08/17 10:46:18;;;;;;;52.60;43.75;;;;;;;20.16;96.98;100875.31;5103947;28;20367;-89
2022/08/17 10:48:44;;;;;;;45.72;38.92;;;;;;;20.12;97.88;100865.78;5100265;28;20028;-85
2022/08/17 10:51:35;;;;;;;44.88;39.92;;;;;;;19.98;98.44;100853.53;5100572;28;20028;-86
2022/08/17 10:54:01;;;;;;;47.50;39.55;;;;;;;19.98;100.00;100852.63;5105765;28;20102;-86
2022/08/17 10:56:45;;;;;;;42.58;38.08;;;;;;;19.89;99.06;100847.06;5095536;28;20431;-87
2022/08/17 10:59:33;;;;;;;43.58;38.55;;;;;;;19.92;98.16;100855.91;5091203;28;20023;-83
2022/08/17 11:02:07;;;;;;;44.17;39.15;;;;;;;19.96;100.00;100862.75;5090795;28;20115;-86
2022/08/17 11:04:53;;;;;;;45.33;39.25;;;;;;;19.92;99.15;100859.47;5108837;27;20028;-85
2022/08/17 11:07:42;;;;;;;48.38;40.58;;;;;;;20.03;100.00;100874.72;5100198;28;20022;-84
2022/08/17 11:10:41;;;;;;;43.28;38.58;;;;;;;19.90;97.93;100870.41;5105872;28;20023;-85
2022/08/17 11:13:34;;;;;;;44.38;38.05;;;;;;;19.88;98.88;100885.88;5094015;28;20357;-85
2022/08/17 11:16:18;;;;;;;42.63;38.03;;;;;;;19.83;99.11;100887.31;5101517;28;20063;-85
2022/08/17 11:19:25;;;;;;;45.08;38.72;;;;;;;19.82;99.20;100891.84;5105003;28;20178;-85
2022/08/17 11:21:59;;;;;;;43.85;37.75;;;;;;;19.84;100.00;100891.72;5027780;28;20322;-85
2022/08/17 11:24:36;;;;;;;51.38;43.13;;;;;;;19.84;100.00;100895.25;5025061;28;20037;-84
2022/08/17 11:27:08;;;;;;;48.63;42.85;;;;;;;19.83;100.00;100903.50;5028513;28;20124;-86
2022/08/17 11:29:48;;;;;;;47.13;39.75;;;;;;;19.82;100.00;100912.59;5029001;28;20105;-86
2022/08/17 11:32:32;;;;;;;48.03;41.65;;;;;;;19.96;100.00;100922.19;5024707;28;20056;-85
2022/08/17 11:35:23;;;;;;;;;;;;;;;20.09;99.45;100928.19;5032608;28;20065;-86
2022/08/17 11:38:29;;;;;;;46.50;40.20;;;;;;;20.24;100.00;100929.53;5051365;28;19928;-87
2022/08/17 11:41:05;;;;;;;50.33;43.70;;;;;;;20.38;100.00;100929.13;5049099;28;20072;-87
2022/08/17 11:43:57;;;;;;;46.83;41.72;;;;;;;20.45;100.00;100933.97;5055005;28;20298;-86
2022/08/17 11:52:51;;;;;;;43.80;39.03;;;;;;;20.63;100.00;100954.81;4967485;28;20058;-85
2022/08/17 11:55:30;;;;;;;43.75;39.05;;;;;;;20.53;100.00;100956.66;4969711;28;20035;-86
2022/08/17 11:58:00;;;;;;;42.78;38.22;;;;;;;20.44;99.60;100954.75;4971931;28;20037;-84
2022/08/17 12:00:43;;;;;;;43.60;38.90;;;;;;;20.25;98.64;100958.25;5026311;28;20090;-83
2022/08/17 12:03:23;;;;;;;44.40;39.72;;;;;;;20.15;99.38;100960.94;5033977;28;20470;-84
2022/08/17 12:06:05;;;;;;;43.75;39.00;;;;;;;19.96;99.36;100955.44;5035543;28;20036;-84
2022/08/17 12:08:33;;;;;;;49.10;43.13;;;;;;;20.02;100.00;100968.44;5041847;28;20157;-85